Time;durP1;ratioP1;P1;durP2;ratioP2;P2;SDS_P1;SDS_P2;PMS_P1;PMS_P2;Temp;Humidity;BMP_temperature;BMP_pressure;BME280_temperature;BME280_humidity;BME280_pressure;Samples;Min_cycle;Max_cycle;Signal;HPM_P1;HPM_P2
2023/10/06 00:03:05;;;;;;;8.20;4.80;;;9.00;99.90;;;;;;4939337;29;20214;-27
2023/10/06 00:05:32;;;;;;;9.10;4.13;;;9.00;99.90;;;;;;4924929;29;20774;-27
2023/10/06 00:07:58;;;;;;;7.67;4.50;;;9.00;99.90;;;;;;4943710;29;20197;-27
2023/10/06 00:10:27;;;;;;;7.43;4.30;;;9.00;99.90;;;;;;4953282;29;20178;-27
2023/10/06 00:12:58;;;;;;;13.47;4.50;;;8.90;99.90;;;;;;4953521;28;20221;-27
2023/10/06 00:15:38;;;;;;;8.83;4.53;;;9.00;99.90;;;;;;4935857;28;20205;-27
2023/10/06 00:18:08;;;;;;;8.77;4.70;;;9.00;99.90;;;;;;4931206;29;20274;-27
2023/10/06 00:20:57;;;;;;;6.93;4.43;;;9.00;99.90;;;;;;4934792;28;20181;-27
2023/10/06 00:23:28;;;;;;;7.73;4.57;;;9.00;99.90;;;;;;4935390;29;20189;-27
2023/10/06 00:25:55;;;;;;;8.37;4.83;;;9.00;99.90;;;;;;4950118;29;20204;-27
2023/10/06 00:28:25;;;;;;;9.03;5.10;;;9.00;99.90;;;;;;4930145;29;20220;-27
2023/10/06 00:30:58;;;;;;;7.10;4.63;;;9.00;99.90;;;;;;4936814;29;20182;-27
2023/10/06 00:33:33;;;;;;;10.00;5.37;;;8.90;99.90;;;;;;4924556;29;20182;-27
2023/10/06 00:36:07;;;;;;;9.57;4.63;;;8.90;99.90;;;;;;4934641;29;20217;-27
2023/10/06 00:38:36;;;;;;;10.57;5.37;;;8.80;99.90;;;;;;4945071;29;20177;-27
2023/10/06 00:41:06;;;;;;;8.67;4.90;;;8.80;99.90;;;;;;4951406;29;20233;-27
2023/10/06 00:43:37;;;;;;;9.23;4.60;;;8.70;99.90;;;;;;4947119;28;20188;-27
2023/10/06 00:46:06;;;;;;;8.30;4.50;;;8.70;99.90;;;;;;4923051;29;20208;-27
2023/10/06 00:48:38;;;;;;;11.17;4.60;;;8.60;99.90;;;;;;4937965;29;20212;-27
2023/10/06 00:51:22;;;;;;;9.23;4.90;;;8.60;99.90;;;;;;4946348;29;20202;-27
2023/10/06 00:53:52;;;;;;;8.57;4.23;;;8.60;99.90;;;;;;4947438;29;20192;-27
2023/10/06 00:56:25;;;;;;;8.20;4.93;;;8.50;99.90;;;;;;4946729;29;20202;-27
2023/10/06 00:58:51;;;;;;;9.77;4.90;;;8.50;99.90;;;;;;4947381;29;20220;-27
2023/10/06 01:01:18;;;;;;;6.77;4.20;;;8.40;99.90;;;;;;4945586;28;20236;-27
2023/10/06 01:03:48;;;;;;;8.20;4.97;;;8.40;99.90;;;;;;4934368;29;20187;-27
2023/10/06 01:06:17;;;;;;;9.63;5.40;;;8.40;99.90;;;;;;4933543;29;20251;-27
2023/10/06 01:08:52;;;;;;;9.53;5.20;;;8.40;99.90;;;;;;4927527;29;20202;-27
2023/10/06 01:11:26;;;;;;;9.97;5.13;;;8.30;99.90;;;;;;4929768;29;20190;-27
2023/10/06 01:13:56;;;;;;;8.10;4.70;;;8.30;99.90;;;;;;4913261;29;20190;-27
2023/10/06 01:16:34;;;;;;;7.17;4.10;;;8.30;99.90;;;;;;4933922;29;20213;-27
2023/10/06 01:19:14;;;;;;;9.00;5.57;;;8.30;99.90;;;;;;4936428;29;20189;-27
2023/10/06 01:21:48;;;;;;;11.43;5.80;;;8.30;99.90;;;;;;4935467;29;20216;-27
2023/10/06 01:24:24;;;;;;;9.87;5.20;;;8.20;99.90;;;;;;4952169;29;20192;-27
2023/10/06 01:27:01;;;;;;;12.27;5.80;;;8.20;99.90;;;;;;4940231;29;20227;-27
2023/10/06 01:29:30;;;;;;;7.80;4.73;;;8.20;99.90;;;;;;4937177;29;20177;-27
2023/10/06 01:31:57;;;;;;;8.40;4.83;;;8.20;99.90;;;;;;4931437;29;20200;-27
2023/10/06 01:34:24;;;;;;;9.10;5.27;;;8.20;99.90;;;;;;4936399;29;20197;-27
2023/10/06 01:36:53;;;;;;;8.77;4.90;;;8.20;99.90;;;;;;4945823;28;20208;-27
2023/10/06 01:39:22;;;;;;;10.40;4.77;;;8.20;99.90;;;;;;4936540;28;20182;-27
2023/10/06 01:41:49;;;;;;;9.00;4.80;;;8.20;99.90;;;;;;4946248;28;20209;-27
2023/10/06 01:44:15;;;;;;;8.43;5.47;;;8.20;99.90;;;;;;4947739;29;20192;-27
2023/10/06 01:46:54;;;;;;;9.83;4.87;;;8.20;99.90;;;;;;4941137;28;20230;-27
2023/10/06 01:49:23;;;;;;;7.20;4.27;;;8.20;99.90;;;;;;4942929;29;20185;-27
2023/10/06 01:51:52;;;;;;;9.93;5.03;;;8.20;99.90;;;;;;4951942;29;20654;-27
2023/10/06 01:54:19;;;;;;;8.30;4.73;;;8.10;99.90;;;;;;4928527;29;20222;-27
2023/10/06 01:56:46;;;;;;;8.93;4.67;;;8.10;99.90;;;;;;4945408;28;20209;-27
2023/10/06 01:59:14;;;;;;;8.17;4.83;;;8.10;99.90;;;;;;4931183;29;20318;-27
2023/10/06 02:01:41;;;;;;;10.67;4.37;;;8.00;99.90;;;;;;4913705;29;20204;-27
2023/10/06 02:04:11;;;;;;;8.33;4.60;;;7.80;99.90;;;;;;4920907;29;20178;-27
2023/10/06 02:06:38;;;;;;;8.23;4.40;;;7.60;99.90;;;;;;4918795;29;20210;-27
2023/10/06 02:09:20;;;;;;;9.03;4.50;;;7.60;99.90;;;;;;4931784;29;20202;-26
2023/10/06 02:11:50;;;;;;;7.77;4.67;;;7.60;99.90;;;;;;4945888;29;20256;-26
2023/10/06 02:14:17;;;;;;;7.20;4.73;;;7.60;99.90;;;;;;4939801;29;20201;-26
2023/10/06 02:16:44;;;;;;;10.50;5.60;;;7.60;99.90;;;;;;4931333;29;20213;-26
2023/10/06 02:19:12;;;;;;;8.27;4.97;;;7.60;99.90;;;;;;4926174;29;20189;-27
2023/10/06 02:21:42;;;;;;;8.77;4.83;;;7.60;99.90;;;;;;4932524;29;20230;-27
2023/10/06 02:24:08;;;;;;;8.50;4.83;;;7.60;99.90;;;;;;4933330;29;20193;-27
2023/10/06 02:26:36;;;;;;;8.20;5.10;;;7.50;99.90;;;;;;4936783;29;20204;-26
2023/10/06 02:29:11;;;;;;;11.30;5.33;;;7.60;99.90;;;;;;4935937;28;20194;-27
2023/10/06 02:31:36;;;;;;;13.33;5.27;;;7.60;99.90;;;;;;4943210;29;20208;-27
2023/10/06 02:34:04;;;;;;;7.13;4.73;;;7.40;99.90;;;;;;4932659;29;20186;-26
2023/10/06 02:36:31;;;;;;;6.73;4.87;;;7.40;99.90;;;;;;4939027;29;20287;-27
2023/10/06 02:38:56;;;;;;;8.43;5.10;;;7.40;99.90;;;;;;4939564;29;20197;-26
2023/10/06 02:41:29;;;;;;;7.77;5.03;;;7.40;99.90;;;;;;4934879;29;20217;-26
2023/10/06 02:43:57;;;;;;;6.73;4.77;;;7.30;99.90;;;;;;4944480;29;20204;-27
2023/10/06 02:46:25;;;;;;;5.63;4.20;;;7.30;99.90;;;;;;4942333;28;20217;-26
2023/10/06 02:48:51;;;;;;;6.00;4.00;;;7.30;99.90;;;;;;4940414;29;20184;-26
2023/10/06 02:51:19;;;;;;;7.10;4.77;;;7.30;99.90;;;;;;4937010;29;20193;-26
2023/10/06 02:53:50;;;;;;;7.40;4.17;;;7.20;99.90;;;;;;4944044;28;20215;-27
2023/10/06 02:56:22;;;;;;;6.13;4.47;;;7.30;99.90;;;;;;4941971;29;20246;-26
2023/10/06 02:58:50;;;;;;;6.80;3.67;;;7.30;99.90;;;;;;4954761;29;20184;-27
2023/10/06 03:01:17;;;;;;;7.67;4.30;;;7.30;99.90;;;;;;4934755;28;20710;-27
2023/10/06 03:03:43;;;;;;;7.83;4.53;;;7.30;99.90;;;;;;4926032;29;20239;-26
2023/10/06 03:06:09;;;;;;;6.60;4.17;;;7.30;99.90;;;;;;4954578;28;20209;-28
2023/10/06 03:08:35;;;;;;;5.83;4.10;;;7.30;99.90;;;;;;4951177;28;20186;-26
2023/10/06 03:11:01;;;;;;;8.87;4.60;;;7.30;99.90;;;;;;4950548;29;20221;-27
2023/10/06 03:13:36;;;;;;;8.93;4.73;;;7.20;99.90;;;;;;4938433;29;20231;-26
2023/10/06 03:16:10;;;;;;;7.50;5.20;;;7.20;99.90;;;;;;4942910;29;20208;-27
2023/10/06 03:18:37;;;;;;;9.70;5.70;;;7.10;99.90;;;;;;4938880;29;20243;-26
2023/10/06 03:23:38;;;;;;;8.80;5.50;;;7.00;99.90;;;;;;4947105;29;20180;-27
2023/10/06 03:26:12;;;;;;;7.47;4.77;;;6.90;99.90;;;;;;4954288;28;20202;-26
2023/10/06 03:28:42;;;;;;;6.27;4.77;;;6.90;99.90;;;;;;4953261;29;20180;-27
2023/10/06 03:33:49;;;;;;;8.33;5.30;;;6.90;99.90;;;;;;4953823;29;20184;-26
2023/10/06 03:39:07;;;;;;;6.33;5.13;;;6.90;99.90;;;;;;4936329;29;20295;-26
2023/10/06 03:41:37;;;;;;;9.20;5.00;;;7.00;99.90;;;;;;4933358;29;20205;-26
2023/10/06 03:44:04;;;;;;;19.53;5.80;;;6.90;99.90;;;;;;4945720;28;20180;-26
2023/10/06 03:46:37;;;;;;;8.20;5.10;;;6.90;99.90;;;;;;4953487;28;20210;-26
2023/10/06 03:49:07;;;;;;;10.37;5.47;;;6.80;99.90;;;;;;4948039;29;20176;-26
2023/10/06 03:51:42;;;;;;;9.97;5.33;;;6.80;99.90;;;;;;4952616;28;20182;-27
2023/10/06 03:54:10;;;;;;;7.13;5.10;;;6.90;99.90;;;;;;4927284;29;20193;-26
2023/10/06 03:56:36;;;;;;;9.87;5.77;;;6.90;99.90;;;;;;4919530;29;20216;-27
2023/10/06 03:59:12;;;;;;;11.83;6.00;;;6.90;99.90;;;;;;4933011;29;20201;-26
2023/10/06 04:01:38;;;;;;;7.07;5.00;;;6.80;99.90;;;;;;4927108;29;20204;-26
2023/10/06 04:04:05;;;;;;;8.83;5.80;;;6.90;99.90;;;;;;4923258;29;20253;-28
2023/10/06 04:06:34;;;;;;;9.70;5.90;;;6.90;99.90;;;;;;4918713;29;20240;-26
2023/10/06 04:09:01;;;;;;;9.50;5.63;;;6.90;99.90;;;;;;4933168;29;20271;-26
2023/10/06 04:11:29;;;;;;;10.73;5.87;;;6.90;99.90;;;;;;4933880;29;20204;-26
2023/10/06 04:13:56;;;;;;;13.37;5.70;;;6.80;99.90;;;;;;4932200;29;20199;-27
2023/10/06 04:16:23;;;;;;;10.07;5.73;;;6.70;99.90;;;;;;4924394;29;20209;-26
2023/10/06 04:18:49;;;;;;;8.07;5.10;;;6.70;99.90;;;;;;4934029;29;20369;-27
2023/10/06 04:21:16;;;;;;;9.00;4.80;;;6.70;99.90;;;;;;4931442;29;20209;-27
2023/10/06 04:23:42;;;;;;;6.53;4.63;;;6.70;99.90;;;;;;4920562;29;20252;-26
2023/10/06 04:26:16;;;;;;;7.10;5.13;;;6.60;99.90;;;;;;4939985;29;20355;-27
2023/10/06 04:28:45;;;;;;;7.70;5.23;;;6.70;99.90;;;;;;4908799;29;20181;-26
2023/10/06 04:31:11;;;;;;;7.67;5.47;;;6.70;99.90;;;;;;4943113;29;20189;-27
2023/10/06 04:33:37;;;;;;;8.80;5.77;;;6.70;99.90;;;;;;4927445;29;20188;-27
2023/10/06 04:36:11;;;;;;;7.00;5.10;;;6.80;99.90;;;;;;4934465;29;20224;-27
2023/10/06 04:38:38;;;;;;;6.43;4.63;;;6.80;99.90;;;;;;4952942;29;20188;-26
2023/10/06 04:41:08;;;;;;;6.83;5.17;;;6.80;99.90;;;;;;4952484;28;20203;-27
2023/10/06 04:43:44;;;;;;;8.27;5.80;;;6.80;99.90;;;;;;4953767;29;20181;-26
2023/10/06 04:46:11;;;;;;;7.17;5.40;;;6.70;99.90;;;;;;4944698;29;20223;-26
2023/10/06 04:48:38;;;;;;;7.20;5.03;;;6.80;99.90;;;;;;4946442;28;20221;-26
2023/10/06 04:51:09;;;;;;;7.70;5.27;;;6.80;99.90;;;;;;4942190;29;20200;-26
2023/10/06 04:53:38;;;;;;;6.43;5.20;;;6.80;99.90;;;;;;4933560;29;20187;-26
2023/10/06 04:56:11;;;;;;;7.70;5.20;;;6.80;99.90;;;;;;4931755;29;20216;-27
2023/10/06 04:58:38;;;;;;;8.50;4.73;;;6.80;99.90;;;;;;4952101;28;20195;-26
2023/10/06 05:01:07;;;;;;;9.27;5.00;;;6.80;99.90;;;;;;4946379;28;20231;-27
2023/10/06 05:03:45;;;;;;;6.70;5.10;;;6.80;99.90;;;;;;4951052;29;20189;-26
2023/10/06 05:06:16;;;;;;;5.70;4.40;;;6.80;99.90;;;;;;4952525;28;20207;-26
2023/10/06 05:08:46;;;;;;;5.70;4.00;;;6.70;99.90;;;;;;4952522;28;20235;-26
2023/10/06 05:11:17;;;;;;;6.23;3.80;;;6.70;99.90;;;;;;4947721;29;20188;-27
2023/10/06 05:13:43;;;;;;;5.43;3.60;;;6.70;99.90;;;;;;4923829;29;20189;-26
2023/10/06 05:16:11;;;;;;;5.73;3.93;;;6.70;99.90;;;;;;4942878;29;20215;-27
2023/10/06 05:18:40;;;;;;;5.67;4.50;;;6.70;99.90;;;;;;4950277;29;20267;-27
2023/10/06 05:21:09;;;;;;;7.50;4.93;;;6.60;99.90;;;;;;4942500;29;20243;-27
2023/10/06 05:23:35;;;;;;;5.00;4.10;;;6.50;99.90;;;;;;4945754;29;20188;-27
2023/10/06 05:26:07;;;;;;;4.90;4.17;;;6.40;99.90;;;;;;4932917;29;20216;-27
2023/10/06 05:28:37;;;;;;;5.47;4.07;;;6.30;99.90;;;;;;4929404;29;20188;-27
2023/10/06 05:31:04;;;;;;;4.43;3.63;;;6.20;99.90;;;;;;4928536;29;20279;-27
2023/10/06 05:33:30;;;;;;;4.93;4.17;;;6.20;99.90;;;;;;4918848;29;20216;-27
2023/10/06 05:35:57;;;;;;;3.97;3.50;;;6.20;99.90;;;;;;4932689;29;20307;-27
2023/10/06 05:38:24;;;;;;;4.90;4.17;;;6.20;99.90;;;;;;4938434;29;20179;-27
2023/10/06 05:40:50;;;;;;;4.53;4.00;;;6.30;99.90;;;;;;4931087;29;20179;-27
2023/10/06 05:43:16;;;;;;;6.77;4.10;;;6.30;99.90;;;;;;4942935;28;20202;-27
2023/10/06 05:45:51;;;;;;;5.37;3.97;;;6.30;99.90;;;;;;4949553;29;20228;-27
2023/10/06 05:48:20;;;;;;;6.93;3.80;;;6.30;99.90;;;;;;4930884;29;20191;-27
2023/10/06 05:50:48;;;;;;;5.00;3.63;;;6.30;99.90;;;;;;4941774;28;20645;-27
2023/10/06 05:53:22;;;;;;;5.10;3.43;;;6.40;99.90;;;;;;4926250;29;20185;-27
2023/10/06 05:55:49;;;;;;;4.57;3.50;;;6.40;99.90;;;;;;4929888;29;20219;-26
2023/10/06 05:58:23;;;;;;;6.27;3.60;;;6.50;99.90;;;;;;4917674;29;20198;-27
2023/10/06 06:00:55;;;;;;;5.67;3.60;;;6.50;99.90;;;;;;4932595;29;20184;-28
2023/10/06 06:03:25;;;;;;;8.47;3.67;;;6.40;99.90;;;;;;4927432;29;20186;-27
2023/10/06 06:05:53;;;;;;;8.73;3.83;;;6.40;99.90;;;;;;4953160;28;20234;-27
2023/10/06 06:08:22;;;;;;;6.43;3.77;;;6.40;99.90;;;;;;4946476;28;20200;-28
2023/10/06 06:10:48;;;;;;;4.77;3.83;;;6.40;99.90;;;;;;4948496;29;20190;-27
2023/10/06 06:13:14;;;;;;;6.10;4.07;;;6.50;99.90;;;;;;4933961;29;20187;-28
2023/10/06 06:15:41;;;;;;;7.60;4.00;;;6.50;99.90;;;;;;4948331;29;20208;-27
2023/10/06 06:18:08;;;;;;;9.07;3.93;;;6.60;99.90;;;;;;4954364;28;20493;-27
2023/10/06 06:20:38;;;;;;;5.00;3.17;;;6.70;99.90;;;;;;4938544;29;20236;-28
2023/10/06 06:23:08;;;;;;;5.03;3.87;;;6.70;99.90;;;;;;4936986;28;20208;-28
2023/10/06 06:25:39;;;;;;;6.23;3.40;;;6.90;99.90;;;;;;4940167;29;20212;-28
2023/10/06 06:28:08;;;;;;;5.00;3.73;;;6.90;99.90;;;;;;4943044;29;20215;-28
2023/10/06 06:30:37;;;;;;;6.53;3.87;;;7.00;99.90;;;;;;4942884;29;20189;-28
2023/10/06 06:33:13;;;;;;;4.67;3.80;;;7.00;99.90;;;;;;4952708;29;20197;-28
2023/10/06 06:35:42;;;;;;;6.30;4.13;;;7.10;99.90;;;;;;4947451;28;20304;-28
2023/10/06 06:38:12;;;;;;;5.37;4.03;;;7.20;99.90;;;;;;4954608;28;20196;-28
2023/10/06 06:40:39;;;;;;;5.33;3.70;;;7.30;99.90;;;;;;4956129;29;20184;-28
2023/10/06 06:43:11;;;;;;;5.70;3.83;;;7.30;99.90;;;;;;4940123;29;20216;-27
2023/10/06 06:45:40;;;;;;;5.83;4.30;;;7.40;99.90;;;;;;4939846;29;20476;-27
2023/10/06 06:48:13;;;;;;;7.50;4.13;;;7.60;99.90;;;;;;4952162;29;20193;-27
2023/10/06 06:50:43;;;;;;;6.90;4.13;;;7.70;99.90;;;;;;4937380;29;20181;-28
2023/10/06 06:53:12;;;;;;;7.67;4.40;;;7.70;99.90;;;;;;4932856;29;20324;-28
2023/10/06 06:55:39;;;;;;;7.53;4.57;;;7.80;99.90;;;;;;4939458;28;20206;-28
2023/10/06 06:58:06;;;;;;;6.57;4.57;;;7.90;99.90;;;;;;4952468;28;20200;-28
2023/10/06 07:00:35;;;;;;;8.13;4.30;;;8.00;99.90;;;;;;4958527;29;20189;-28
2023/10/06 07:03:01;;;;;;;4.90;3.70;;;8.10;99.90;;;;;;4959302;28;20253;-28
2023/10/06 07:05:28;;;;;;;5.37;4.00;;;8.20;99.90;;;;;;4958228;28;20205;-27
2023/10/06 07:07:54;;;;;;;5.50;3.97;;;8.30;99.90;;;;;;4950234;28;20239;-27
2023/10/06 07:10:22;;;;;;;5.53;4.10;;;8.40;99.90;;;;;;4957683;29;20188;-27
2023/10/06 07:12:52;;;;;;;6.40;4.57;;;8.60;99.90;;;;;;4957607;28;20185;-27
2023/10/06 07:15:19;;;;;;;7.27;4.77;;;8.70;99.90;;;;;;4956167;28;20189;-28
2023/10/06 07:17:56;;;;;;;5.00;4.50;;;8.70;99.90;;;;;;4946286;28;20193;-26
2023/10/06 07:20:24;;;;;;;6.33;4.00;;;8.90;99.90;;;;;;4956932;28;20193;-27
2023/10/06 07:22:54;;;;;;;5.53;3.80;;;9.00;99.90;;;;;;4938695;29;20193;-28
2023/10/06 07:25:21;;;;;;;5.30;4.00;;;9.10;99.90;;;;;;4935893;29;20193;-27
2023/10/06 07:27:55;;;;;;;4.83;3.27;;;9.10;99.90;;;;;;4957376;28;20268;-28
2023/10/06 07:30:22;;;;;;;7.97;3.50;;;9.20;99.90;;;;;;4950250;29;20189;-28
2023/10/06 07:32:51;;;;;;;7.87;4.27;;;9.20;99.90;;;;;;4954257;29;20178;-27
2023/10/06 07:35:19;;;;;;;7.50;3.93;;;9.30;99.90;;;;;;4946428;28;20196;-27
2023/10/06 07:37:47;;;;;;;8.27;3.83;;;9.40;99.90;;;;;;4954431;28;20205;-27
2023/10/06 07:40:18;;;;;;;7.20;4.33;;;9.50;99.90;;;;;;4954327;28;20272;-28
2023/10/06 07:42:50;;;;;;;6.27;3.93;;;9.50;99.90;;;;;;4938280;29;20225;-28
2023/10/06 07:45:20;;;;;;;8.97;4.47;;;9.60;99.90;;;;;;4933816;29;20183;-28
2023/10/06 07:47:46;;;;;;;6.67;4.30;;;9.70;99.90;;;;;;4953371;29;20265;-28
2023/10/06 07:50:14;;;;;;;7.80;4.43;;;9.80;99.90;;;;;;4954268;28;20186;-27
2023/10/06 07:52:41;;;;;;;9.97;4.73;;;9.90;99.90;;;;;;4947586;28;20655;-27
2023/10/06 07:55:09;;;;;;;9.43;4.40;;;10.00;99.90;;;;;;4930052;29;20194;-27
2023/10/06 07:57:36;;;;;;;10.40;5.30;;;10.10;99.90;;;;;;4932450;29;20186;-27
2023/10/06 08:00:06;;;;;;;7.27;4.60;;;10.20;99.90;;;;;;4947587;29;20196;-27
2023/10/06 08:02:41;;;;;;;8.20;5.37;;;10.30;99.90;;;;;;4953315;29;20220;-27
2023/10/06 08:05:13;;;;;;;8.87;5.50;;;10.40;99.90;;;;;;4931585;29;20213;-27
2023/10/06 08:07:42;;;;;;;9.07;5.30;;;10.50;99.90;;;;;;4938642;29;20209;-28
2023/10/06 08:10:13;;;;;;;5.77;4.50;;;10.60;99.90;;;;;;4940802;29;20693;-28
2023/10/06 08:12:44;;;;;;;8.20;5.23;;;10.70;99.90;;;;;;4938995;29;20191;-28
2023/10/06 08:15:11;;;;;;;7.60;5.27;;;10.80;99.90;;;;;;4955827;28;20638;-28
2023/10/06 08:17:37;;;;;;;7.90;5.40;;;10.90;99.90;;;;;;4940819;29;20193;-29
2023/10/06 08:20:07;;;;;;;14.07;5.47;;;11.00;99.90;;;;;;4943539;29;20194;-27
2023/10/06 08:22:34;;;;;;;9.67;5.97;;;11.10;99.90;;;;;;4951493;29;20229;-28
2023/10/06 08:25:05;;;;;;;8.93;5.73;;;11.20;99.90;;;;;;4934321;29;20306;-28
2023/10/06 08:27:35;;;;;;;11.30;5.90;;;11.30;99.90;;;;;;4950434;29;20178;-28
2023/10/06 08:30:07;;;;;;;6.80;4.87;;;11.50;99.90;;;;;;4948410;29;20189;-28
2023/10/06 08:32:33;;;;;;;7.93;5.30;;;11.60;99.90;;;;;;4953300;29;20190;-28
2023/10/06 08:35:00;;;;;;;7.80;4.93;;;11.70;99.90;;;;;;4953525;29;20198;-28
2023/10/06 08:37:26;;;;;;;8.87;4.90;;;11.90;99.90;;;;;;4952372;29;20208;-28
2023/10/06 08:39:55;;;;;;;11.17;5.10;;;12.00;99.90;;;;;;4940840;28;20197;-28
2023/10/06 08:42:21;;;;;;;11.10;5.80;;;12.10;99.90;;;;;;4928982;29;20236;-28
2023/10/06 08:44:47;;;;;;;7.90;5.37;;;12.30;99.90;;;;;;4951961;29;20216;-28
2023/10/06 08:47:14;;;;;;;6.80;5.17;;;12.40;99.90;;;;;;4947692;28;20240;-28
2023/10/06 08:49:40;;;;;;;8.93;5.27;;;12.50;99.90;;;;;;4934863;29;20185;-28
2023/10/06 08:52:12;;;;;;;7.93;5.37;;;12.70;99.90;;;;;;4952764;28;20197;-28
2023/10/06 08:54:39;;;;;;;9.43;4.93;;;12.80;99.90;;;;;;4927463;29;20289;-28
2023/10/06 08:57:05;;;;;;;9.57;5.37;;;13.00;99.90;;;;;;4924474;29;20219;-27
2023/10/06 08:59:33;;;;;;;7.77;5.00;;;13.20;99.90;;;;;;4948185;29;20197;-27
2023/10/06 09:02:00;;;;;;;9.77;5.63;;;13.30;99.90;;;;;;4952865;29;20237;-28
2023/10/06 09:04:35;;;;;;;8.83;5.17;;;13.40;99.90;;;;;;4944404;28;20186;-29
2023/10/06 09:07:16;;;;;;;8.60;5.97;;;13.50;99.90;;;;;;4952074;29;20284;-29
2023/10/06 09:09:43;;;;;;;10.13;5.60;;;13.50;99.90;;;;;;4952794;29;20240;-28
2023/10/06 09:12:31;;;;;;;8.33;5.40;;;13.50;99.90;;;;;;4936315;29;20658;-29
2023/10/06 09:14:57;;;;;;;6.10;4.60;;;13.70;99.90;;;;;;4928453;29;20185;-27
2023/10/06 09:17:35;;;;;;;11.03;5.70;;;13.80;99.90;;;;;;4944402;29;20213;-27
2023/10/06 09:20:02;;;;;;;12.23;5.47;;;13.90;99.90;;;;;;4950367;29;20214;-28
2023/10/06 09:22:43;;;;;;;7.83;5.27;;;14.00;99.90;;;;;;4935490;29;20209;-28
2023/10/06 09:25:10;;;;;;;9.60;5.67;;;14.10;99.90;;;;;;4941056;28;20245;-29
2023/10/06 09:27:37;;;;;;;9.43;5.27;;;14.30;99.90;;;;;;4949915;29;20188;-29
2023/10/06 09:30:11;;;;;;;7.73;5.33;;;14.30;99.90;;;;;;4951190;29;20249;-29
2023/10/06 09:32:40;;;;;;;12.97;6.00;;;14.40;99.90;;;;;;4936320;29;20200;-29
2023/10/06 09:35:19;;;;;;;9.77;5.67;;;14.60;99.90;;;;;;4947933;29;20194;-27
2023/10/06 09:37:46;;;;;;;8.27;5.37;;;14.70;99.90;;;;;;4936386;29;20200;-28
2023/10/06 09:40:22;;;;;;;10.30;5.50;;;14.70;99.90;;;;;;4952295;28;20199;-28
2023/10/06 09:42:54;;;;;;;10.03;5.50;;;14.90;99.90;;;;;;4948347;29;20264;-28
2023/10/06 09:45:24;;;;;;;8.93;5.00;;;15.00;99.90;;;;;;4945820;29;20181;-28
2023/10/06 09:47:56;;;;;;;11.13;6.17;;;15.20;99.90;;;;;;4933330;29;20182;-29
2023/10/06 09:50:24;;;;;;;9.77;5.70;;;15.40;99.90;;;;;;4931740;29;20277;-28
2023/10/06 09:52:51;;;;;;;9.87;5.53;;;15.50;99.90;;;;;;4935094;29;20260;-28
2023/10/06 09:55:19;;;;;;;8.73;5.17;;;15.60;99.90;;;;;;4937976;28;20212;-28
2023/10/06 09:57:47;;;;;;;10.83;5.93;;;15.70;99.90;;;;;;4938214;28;20185;-28
2023/10/06 10:00:18;;;;;;;9.87;6.07;;;15.80;99.90;;;;;;4952415;28;20279;-28
2023/10/06 10:02:48;;;;;;;8.93;5.03;;;15.80;99.90;;;;;;4935728;28;20238;-29
2023/10/06 10:05:18;;;;;;;10.53;6.33;;;15.90;99.90;;;;;;4905181;29;20190;-28
2023/10/06 10:07:50;;;;;;;10.77;5.70;;;16.10;99.90;;;;;;4932490;29;20201;-28
2023/10/06 10:10:22;;;;;;;11.23;6.43;;;16.20;99.90;;;;;;4929286;29;20182;-29
2023/10/06 10:13:23;;;;;;;9.33;6.07;;;16.30;99.90;;;;;;4930188;29;20202;-28
2023/10/06 10:16:29;;;;;;;10.97;5.70;;;16.40;99.90;;;;;;4919066;29;20217;-28
2023/10/06 10:19:08;;;;;;;7.17;4.97;;;16.60;99.90;;;;;;4931794;29;20186;-28
2023/10/06 10:21:36;;;;;;;10.73;5.60;;;16.80;99.90;;;;;;4929467;29;20222;-29
2023/10/06 10:24:05;;;;;;;10.32;5.40;;;16.80;99.90;;;;;;4932501;29;20193;-28
2023/10/06 10:26:52;;;;;;;12.00;6.28;;;16.80;99.90;;;;;;4928166;29;20209;-28
2023/10/06 10:29:18;;;;;;;8.80;5.95;;;17.00;99.90;;;;;;4923995;29;20186;-29
2023/10/06 10:31:52;;;;;;;8.68;5.45;;;17.00;99.90;;;;;;4923127;29;20186;-28
2023/10/06 10:34:22;;;;;;;8.35;5.22;;;17.20;99.90;;;;;;4951497;28;20184;-27
2023/10/06 10:37:12;;;;;;;7.85;5.18;;;17.40;99.90;;;;;;4929905;28;20300;-27
2023/10/06 10:39:49;;;;;;;11.52;5.70;;;17.40;99.90;;;;;;4941005;29;20185;-30
2023/10/06 10:42:22;;;;;;;9.23;5.57;;;17.60;99.90;;;;;;4935784;29;20209;-27
2023/10/06 10:44:49;;;;;;;9.98;4.93;;;17.70;99.90;;;;;;4940490;29;20193;-29
2023/10/06 10:47:16;;;;;;;8.15;4.80;;;17.90;99.90;;;;;;4949371;29;20265;-28
2023/10/06 10:49:44;;;;;;;8.52;5.00;;;18.10;99.90;;;;;;4944548;28;20181;-28
2023/10/06 10:52:11;;;;;;;8.32;5.55;;;18.20;99.90;;;;;;4931358;29;20185;-28
2023/10/06 10:54:40;;;;;;;8.38;4.90;;;18.40;99.90;;;;;;4932300;29;20186;-28
2023/10/06 10:57:09;;;;;;;8.35;4.40;;;18.30;99.90;;;;;;4943598;29;20220;-29
2023/10/06 11:00:00;;;;;;;6.25;4.22;;;18.40;99.90;;;;;;4938379;29;20187;-28
2023/10/06 11:03:03;;;;;;;8.50;4.60;;;18.60;99.90;;;;;;4942912;29;20209;-29
2023/10/06 11:05:29;;;;;;;8.38;4.68;;;18.80;99.90;;;;;;4931166;29;20208;-28
2023/10/06 11:07:58;;;;;;;10.10;4.53;;;18.90;99.90;;;;;;4954167;29;20193;-28
2023/10/06 11:10:26;;;;;;;7.35;4.20;;;19.00;99.90;;;;;;4950140;29;20192;-28
2023/10/06 11:13:12;;;;;;;8.15;4.25;;;19.20;99.90;;;;;;4951373;29;20194;-28
2023/10/06 11:15:39;;;;;;;9.38;4.20;;;19.40;99.90;;;;;;4926558;29;20209;-28
2023/10/06 11:18:06;;;;;;;8.25;4.20;;;19.50;99.90;;;;;;4930558;28;20229;-28
2023/10/06 11:20:39;;;;;;;6.82;3.75;;;19.60;99.90;;;;;;4921908;29;20224;-28
2023/10/06 11:23:06;;;;;;;5.95;4.15;;;19.60;99.90;;;;;;4932508;29;20214;-28
2023/10/06 11:25:36;;;;;;;7.68;4.00;;;19.70;99.90;;;;;;4929549;29;20214;-27
2023/10/06 11:28:09;;;;;;;8.25;4.45;;;19.80;99.90;;;;;;4930033;29;20205;-28
2023/10/06 11:30:42;;;;;;;7.78;4.50;;;19.80;99.90;;;;;;4923847;29;20193;-28
2023/10/06 11:33:13;;;;;;;6.88;3.95;;;20.00;99.90;;;;;;4910671;29;20226;-29
2023/10/06 11:35:45;;;;;;;7.07;4.30;;;19.90;99.90;;;;;;4933953;29;20238;-28
2023/10/06 11:38:13;;;;;;;8.02;4.90;;;20.00;99.90;;;;;;4942669;29;20257;-28
2023/10/06 11:40:40;;;;;;;8.85;4.60;;;20.00;99.90;;;;;;4949472;29;20244;-28
2023/10/06 11:43:21;;;;;;;7.53;4.55;;;20.00;99.90;;;;;;4947252;28;20236;-29
2023/10/06 11:45:48;;;;;;;11.27;4.82;;;20.10;99.90;;;;;;4939204;29;20292;-28
2023/10/06 11:48:34;;;;;;;9.70;4.88;;;20.30;99.90;;;;;;4941546;29;20184;-28
2023/10/06 11:51:01;;;;;;;9.15;4.55;;;20.50;99.90;;;;;;4945222;29;20337;-28
2023/10/06 11:53:28;;;;;;;9.60;4.80;;;20.60;99.90;;;;;;4952696;29;20185;-29
2023/10/06 11:56:06;;;;;;;6.70;4.10;;;20.60;99.90;;;;;;4917666;29;20207;-28
2023/10/06 11:58:35;;;;;;;9.55;4.50;;;20.80;99.90;;;;;;4926960;29;20281;-29
2023/10/06 12:01:03;;;;;;;6.75;4.43;;;20.90;99.90;;;;;;4927221;29;20190;-28
2023/10/06 12:03:47;;;;;;;9.00;4.70;;;21.00;99.90;;;;;;4933208;29;20269;-29
2023/10/06 12:06:13;;;;;;;8.85;4.40;;;21.20;99.90;;;;;;4960914;28;20256;-30
2023/10/06 12:08:45;;;;;;;9.05;4.60;;;21.40;99.90;;;;;;4923828;29;20201;-28
2023/10/06 12:11:14;;;;;;;8.15;4.47;;;21.50;99.90;;;;;;4934647;29;20272;-28
2023/10/06 12:13:40;;;;;;;9.02;5.00;;;21.70;99.90;;;;;;4935518;29;20269;-28
2023/10/06 12:16:13;;;;;;;6.80;4.25;;;21.70;99.90;;;;;;4936639;29;20269;-28
2023/10/06 12:18:39;;;;;;;7.85;4.28;;;21.70;99.90;;;;;;4931257;29;20178;-29
2023/10/06 12:21:11;;;;;;;7.25;4.40;;;21.70;99.90;;;;;;4932892;29;20268;-28
2023/10/06 12:23:37;;;;;;;6.32;4.30;;;21.70;99.90;;;;;;4934970;29;20182;-29
2023/10/06 12:26:06;;;;;;;6.45;3.90;;;21.60;99.90;;;;;;4950612;29;20209;-28
2023/10/06 12:28:32;;;;;;;6.88;4.15;;;21.70;99.90;;;;;;4953772;29;20212;-28
2023/10/06 12:30:58;;;;;;;7.72;4.07;;;21.80;99.90;;;;;;4937085;29;20223;-28
2023/10/06 12:33:24;;;;;;;7.22;4.45;;;21.80;99.90;;;;;;4922282;29;20182;-29
2023/10/06 12:35:53;;;;;;;5.90;3.70;;;21.90;99.90;;;;;;4934034;29;20209;-28
2023/10/06 12:38:19;;;;;;;6.00;3.92;;;22.00;99.90;;;;;;4932806;29;20193;-29
2023/10/06 12:40:48;;;;;;;6.95;4.15;;;22.20;99.90;;;;;;4951246;29;20585;-29
2023/10/06 12:43:16;;;;;;;8.38;4.47;;;22.40;99.90;;;;;;4944429;29;20269;-28
2023/10/06 12:45:42;;;;;;;8.40;4.22;;;22.60;99.90;;;;;;4940383;29;20213;-28
2023/10/06 12:48:11;;;;;;;6.47;4.32;;;22.70;99.90;;;;;;4941067;29;20722;-30
2023/10/06 12:50:40;;;;;;;6.47;3.88;;;22.80;99.90;;;;;;4946722;29;20205;-28
2023/10/06 12:53:11;;;;;;;6.55;3.80;;;22.90;99.90;;;;;;4952561;28;20193;-29
2023/10/06 12:55:44;;;;;;;7.22;4.15;;;22.80;99.90;;;;;;4951400;29;20205;-28
2023/10/06 12:58:14;;;;;;;6.88;4.28;;;23.00;99.90;;;;;;4936896;29;20240;-29
2023/10/06 13:00:41;;;;;;;9.57;4.40;;;23.00;99.90;;;;;;4944273;29;20257;-29
2023/10/06 13:03:16;;;;;;;7.55;4.28;;;22.70;99.90;;;;;;4922678;29;20210;-30
2023/10/06 13:05:46;;;;;;;8.38;3.75;;;22.70;99.90;;;;;;4933269;29;20253;-29
2023/10/06 13:08:17;;;;;;;6.63;4.15;;;22.90;99.90;;;;;;4946300;29;20190;-29
2023/10/06 13:10:46;;;;;;;6.55;4.10;;;23.10;99.90;;;;;;4954478;28;20212;-29
2023/10/06 13:13:16;;;;;;;7.80;4.30;;;23.30;99.90;;;;;;4926826;29;20253;-31
2023/10/06 13:15:45;;;;;;;6.47;4.10;;;23.40;99.90;;;;;;4916552;29;20213;-28